Time;durP1;ratioP1;P1;durP2;ratioP2;P2;SDS_P1;SDS_P2;PMS_P1;PMS_P2;Temp;Humidity;BMP_temperature;BMP_pressure;BME280_temperature;BME280_humidity;BME280_pressure;Samples;Min_cycle;Max_cycle;Signal;HPM_P1;HPM_P2
2022/09/11 03:01:53;;;;;;;0.32;0.10;;;24.10;46.70;;;;;;5388191;23;45792;-63
2022/09/11 03:04:21;;;;;;;0.40;0.20;;;24.10;46.70;;;;;;5002964;28;45161;-63
2022/09/11 03:06:47;;;;;;;0.13;0.13;;;24.10;46.70;;;;;;5000619;28;45295;-63
2022/09/11 03:09:13;;;;;;;0.28;0.20;;;24.10;46.60;;;;;;5009244;28;45383;-63
2022/09/11 03:11:39;;;;;;;0.38;0.20;;;24.10;46.70;;;;;;5016516;28;45411;-63
2022/09/11 03:14:04;;;;;;;0.50;0.20;;;24.10;46.60;;;;;;4992487;28;45442;-61
2022/09/11 03:16:30;;;;;;;0.70;0.30;;;24.10;46.60;;;;;;4998075;28;45121;-64
2022/09/11 03:18:55;;;;;;;0.65;0.20;;;24.20;46.60;;;;;;5008718;28;45275;-63
2022/09/11 03:21:21;;;;;;;0.45;0.25;;;24.20;46.70;;;;;;4990423;28;45647;-63
2022/09/11 03:23:46;;;;;;;0.50;0.22;;;24.10;46.60;;;;;;4986557;28;44916;-63
2022/09/11 03:26:12;;;;;;;0.38;0.30;;;24.10;46.60;;;;;;5007155;28;45329;-64
2022/09/11 03:28:38;;;;;;;0.20;0.20;;;24.10;46.60;;;;;;4993546;28;45216;-63
2022/09/11 03:31:07;;;;;;;0.30;0.20;;;24.10;46.70;;;;;;5008646;28;45190;-63
2022/09/11 03:33:33;;;;;;;0.57;0.20;;;24.10;46.70;;;;;;5003735;28;45906;-63
2022/09/11 03:35:59;;;;;;;0.20;0.20;;;24.10;46.70;;;;;;5009098;28;45160;-63
2022/09/11 03:38:25;;;;;;;0.25;0.15;;;24.10;46.70;;;;;;5010537;28;45404;-62
2022/09/11 03:40:50;;;;;;;0.30;0.30;;;24.10;46.70;;;;;;5003525;28;45375;-63
2022/09/11 03:43:16;;;;;;;0.57;0.30;;;24.10;46.70;;;;;;5006593;28;45673;-64
2022/09/11 03:45:43;;;;;;;0.20;0.10;;;24.10;46.70;;;;;;5008425;28;45533;-63
2022/09/11 03:48:09;;;;;;;0.20;0.20;;;24.20;46.80;;;;;;4986629;28;45586;-64
2022/09/11 03:50:34;;;;;;;0.22;0.20;;;24.10;46.70;;;;;;5010704;28;45477;-65
2022/09/11 03:53:00;;;;;;;0.80;0.30;;;24.10;46.70;;;;;;4993228;28;45355;-65
2022/09/11 03:55:25;;;;;;;0.10;0.10;;;24.10;46.80;;;;;;4990584;28;45273;-62
2022/09/11 03:57:51;;;;;;;0.20;0.20;;;24.10;46.70;;;;;;4983166;28;45211;-63
2022/09/11 04:00:16;;;;;;;0.65;0.20;;;24.10;46.80;;;;;;4984599;28;44761;-63
2022/09/11 04:02:42;;;;;;;0.50;0.30;;;24.10;46.80;;;;;;4989297;28;45865;-63
2022/09/11 04:05:08;;;;;;;1.65;0.20;;;24.20;46.90;;;;;;5006979;28;45063;-63
2022/09/11 04:07:33;;;;;;;0.30;0.20;;;24.10;46.90;;;;;;4988140;28;45212;-63
2022/09/11 04:09:59;;;;;;;0.43;0.32;;;24.10;46.90;;;;;;4984699;28;45377;-63
2022/09/11 04:12:25;;;;;;;0.60;0.30;;;24.10;46.90;;;;;;4991152;28;46051;-63
2022/09/11 04:14:50;;;;;;;0.47;0.28;;;24.10;46.90;;;;;;5005393;28;45164;-61
2022/09/11 04:17:16;;;;;;;0.70;0.30;;;24.10;46.90;;;;;;4979360;28;45160;-63
2022/09/11 04:19:42;;;;;;;0.28;0.20;;;24.10;46.90;;;;;;5012160;28;45534;-63
2022/09/11 04:22:07;;;;;;;0.20;0.10;;;24.10;46.90;;;;;;4986809;28;45187;-61
2022/09/11 04:24:33;;;;;;;0.20;0.20;;;24.10;46.90;;;;;;4993884;28;44991;-61
2022/09/11 04:26:59;;;;;;;0.28;0.20;;;24.10;46.90;;;;;;4985190;28;45510;-63
2022/09/11 04:29:25;;;;;;;0.50;0.30;;;24.10;46.90;;;;;;4975966;28;45263;-61
2022/09/11 04:31:51;;;;;;;0.20;0.17;;;24.10;47.60;;;;;;5007925;28;48087;-61
2022/09/11 04:34:18;;;;;;;0.35;0.30;;;24.10;47.00;;;;;;4990864;28;45048;-63
2022/09/11 04:36:43;;;;;;;0.30;0.30;;;24.10;47.00;;;;;;4978552;28;45852;-63
2022/09/11 04:39:10;;;;;;;0.28;0.28;;;24.10;46.90;;;;;;5014239;28;45607;-63
2022/09/11 04:41:35;;;;;;;0.20;0.20;;;24.10;47.00;;;;;;4991932;28;46114;-63
2022/09/11 04:44:01;;;;;;;0.25;0.25;;;24.00;47.00;;;;;;5013063;28;45401;-64
2022/09/11 04:46:26;;;;;;;0.38;0.22;;;24.10;47.00;;;;;;4997982;28;45528;-64
2022/09/11 04:48:54;;;;;;;0.40;0.28;;;24.10;47.00;;;;;;4990282;28;44607;-63
2022/09/11 04:51:21;;;;;;;0.20;0.10;;;24.00;46.90;;;;;;4995212;28;46252;-62
2022/09/11 04:53:48;;;;;;;0.32;0.32;;;24.00;47.00;;;;;;4991570;28;45276;-63
2022/09/11 04:56:13;;;;;;;0.28;0.28;;;24.00;47.00;;;;;;4982284;28;45204;-62
2022/09/11 04:58:39;;;;;;;0.28;0.28;;;24.00;47.00;;;;;;5011678;28;44820;-62
2022/09/11 05:01:13;;;;;;;0.20;0.20;;;24.00;47.00;;;;;;5011000;28;47180;-64
2022/09/11 05:03:39;;;;;;;0.20;0.20;;;24.00;47.00;;;;;;5009886;28;45311;-63
2022/09/11 05:06:05;;;;;;;0.30;0.20;;;24.00;47.00;;;;;;4991913;28;44674;-62
2022/09/11 05:08:32;;;;;;;0.20;0.20;;;24.00;47.00;;;;;;4990076;28;45570;-62
2022/09/11 05:11:01;;;;;;;0.30;0.20;;;24.00;47.00;;;;;;5008527;28;45942;-63
2022/09/11 05:13:28;;;;;;;0.55;0.38;;;24.10;47.10;;;;;;5011701;28;44656;-61
2022/09/11 05:16:00;;;;;;;0.85;0.45;;;24.00;47.00;;;;;;5003874;28;45383;-62
2022/09/11 05:18:26;;;;;;;0.50;0.30;;;24.00;47.10;;;;;;5004599;28;45617;-63
2022/09/11 05:21:02;;;;;;;0.77;0.30;;;24.00;47.10;;;;;;4995132;28;45357;-62
2022/09/11 05:23:28;;;;;;;0.55;0.30;;;24.00;47.10;;;;;;5010480;28;46551;-63
2022/09/11 05:25:58;;;;;;;0.70;0.22;;;24.00;47.10;;;;;;4995197;28;45130;-63
2022/09/11 05:28:24;;;;;;;0.95;0.20;;;24.00;47.10;;;;;;5010411;28;45172;-62
2022/09/11 05:30:52;;;;;;;0.20;0.20;;;24.00;47.10;;;;;;4973679;23;45298;-62
2022/09/11 05:33:17;;;;;;;0.30;0.20;;;24.00;47.10;;;;;;4965860;28;45324;-66
2022/09/11 05:35:43;;;;;;;0.68;0.22;;;24.00;47.10;;;;;;4963798;28;45192;-63
2022/09/11 05:38:09;;;;;;;0.60;0.30;;;24.00;47.10;;;;;;4947282;28;45205;-63
2022/09/11 05:40:35;;;;;;;0.20;0.20;;;24.00;47.10;;;;;;4961564;28;47221;-62
2022/09/11 05:43:01;;;;;;;0.28;0.28;;;24.00;47.10;;;;;;4962916;28;44732;-62
2022/09/11 05:45:26;;;;;;;0.50;0.35;;;24.00;47.10;;;;;;4959570;28;45252;-62
2022/09/11 05:47:52;;;;;;;1.35;0.38;;;24.00;47.10;;;;;;4972424;28;44864;-62
2022/09/11 05:50:20;;;;;;;0.40;0.25;;;24.00;47.10;;;;;;4976207;28;46181;-62
2022/09/11 05:52:46;;;;;;;0.40;0.30;;;24.00;47.10;;;;;;4966228;28;45244;-65
2022/09/11 05:55:11;;;;;;;0.20;0.20;;;24.00;47.10;;;;;;4976107;28;45385;-62
2022/09/11 05:57:37;;;;;;;0.22;0.22;;;24.00;47.10;;;;;;4978987;28;45887;-63
2022/09/11 06:00:04;;;;;;;0.30;0.30;;;24.00;47.00;;;;;;4976017;28;45911;-63
2022/09/11 06:02:29;;;;;;;0.10;0.10;;;24.00;47.10;;;;;;4958443;28;45269;-62
2022/09/11 06:04:55;;;;;;;0.30;0.30;;;24.00;47.10;;;;;;4968100;28;45332;-62
2022/09/11 06:07:21;;;;;;;0.47;0.30;;;24.00;47.10;;;;;;4954417;28;45831;-64
2022/09/11 06:09:46;;;;;;;0.20;0.20;;;24.00;47.20;;;;;;4969625;28;45324;-61
2022/09/11 06:12:12;;;;;;;0.57;0.20;;;24.00;47.20;;;;;;4955405;28;46264;-62
2022/09/11 06:14:38;;;;;;;0.45;0.40;;;24.00;47.20;;;;;;4974588;28;45125;-62
2022/09/11 06:17:05;;;;;;;0.43;0.20;;;24.00;47.20;;;;;;4973518;28;44781;-61
2022/09/11 06:19:30;;;;;;;0.73;0.30;;;24.00;47.20;;;;;;4955169;28;45255;-62
2022/09/11 06:21:56;;;;;;;0.95;0.30;;;24.00;47.20;;;;;;4974582;28;45601;-64
2022/09/11 06:24:22;;;;;;;0.40;0.30;;;24.00;47.20;;;;;;4975308;28;45267;-63
2022/09/11 06:26:48;;;;;;;0.40;0.30;;;24.10;47.20;;;;;;4956225;28;45644;-62
2022/09/11 06:29:14;;;;;;;0.75;0.40;;;24.00;47.10;;;;;;4955206;28;46170;-63
2022/09/11 06:31:40;;;;;;;0.20;0.20;;;24.00;47.20;;;;;;4971838;28;45200;-64
2022/09/11 06:34:06;;;;;;;0.22;0.22;;;24.00;47.20;;;;;;4958313;28;45683;-65
2022/09/11 06:36:32;;;;;;;0.65;0.30;;;24.00;47.30;;;;;;4971683;28;45261;-62
2022/09/11 06:38:57;;;;;;;0.50;0.40;;;24.00;47.30;;;;;;4957407;28;46025;-62
2022/09/11 06:41:23;;;;;;;0.20;0.20;;;24.00;47.30;;;;;;4972394;28;45047;-62
2022/09/11 06:43:49;;;;;;;0.22;0.22;;;24.00;47.30;;;;;;4957148;28;44841;-63
2022/09/11 06:46:19;;;;;;;0.28;0.28;;;24.00;47.20;;;;;;4975571;28;45354;-62
2022/09/11 06:48:45;;;;;;;0.30;0.30;;;24.00;47.30;;;;;;4973599;28;45251;-63
2022/09/11 06:51:13;;;;;;;0.30;0.20;;;24.00;47.30;;;;;;4955145;28;45126;-63
2022/09/11 06:53:39;;;;;;;0.35;0.28;;;24.00;47.30;;;;;;4956091;28;45597;-63
2022/09/11 06:56:05;;;;;;;0.30;0.30;;;24.00;47.30;;;;;;4953067;28;45251;-66
2022/09/11 06:58:31;;;;;;;0.57;0.32;;;24.00;47.30;;;;;;4973596;28;46413;-62
2022/09/11 07:01:09;;;;;;;0.30;0.30;;;24.00;47.20;;;;;;4969525;28;45344;-62
2022/09/11 07:03:34;;;;;;;0.30;0.30;;;24.10;47.30;;;;;;4953150;28;44654;-61
2022/09/11 07:06:00;;;;;;;0.30;0.22;;;24.10;47.20;;;;;;4973891;28;45302;-64
2022/09/11 07:08:26;;;;;;;0.20;0.20;;;24.00;47.30;;;;;;4924476;28;46708;-64
2022/09/11 07:10:52;;;;;;;0.90;0.30;;;24.00;47.30;;;;;;4972883;28;45401;-61
2022/09/11 07:13:18;;;;;;;0.55;0.40;;;24.10;47.30;;;;;;4969721;28;45659;-68
2022/09/11 07:15:46;;;;;;;0.22;0.20;;;24.10;47.20;;;;;;4955745;28;45026;-61
2022/09/11 07:18:12;;;;;;;0.30;0.30;;;24.10;47.30;;;;;;4971661;28;46008;-62
2022/09/11 07:20:38;;;;;;;0.52;0.32;;;24.00;47.30;;;;;;4971636;28;46405;-64
2022/09/11 07:23:04;;;;;;;0.30;0.30;;;24.00;47.40;;;;;;4968587;28;44949;-64
2022/09/11 07:25:29;;;;;;;1.15;0.30;;;24.00;47.40;;;;;;4970615;28;44642;-64
2022/09/11 07:27:55;;;;;;;0.43;0.35;;;24.00;47.40;;;;;;4952812;28;47091;-63
2022/09/11 07:30:21;;;;;;;0.43;0.30;;;24.10;47.40;;;;;;4970558;28;45357;-61
2022/09/11 07:32:48;;;;;;;0.30;0.30;;;24.10;47.40;;;;;;4969026;28;45478;-61
2022/09/11 07:35:20;;;;;;;0.22;0.22;;;24.10;47.30;;;;;;4956681;28;48572;-65
2022/09/11 07:37:46;;;;;;;0.20;0.20;;;24.00;47.40;;;;;;4970174;28;46797;-61
2022/09/11 07:40:12;;;;;;;0.32;0.30;;;24.10;47.50;;;;;;4972269;28;45456;-63
2022/09/11 07:42:37;;;;;;;0.30;0.30;;;24.00;47.50;;;;;;4946018;28;44873;-61
2022/09/11 07:45:03;;;;;;;0.45;0.20;;;24.00;47.60;;;;;;4972191;28;45309;-63
2022/09/11 07:47:29;;;;;;;1.00;0.30;;;24.00;47.50;;;;;;4972023;28;45573;-62
2022/09/11 07:49:55;;;;;;;0.40;0.30;;;24.00;47.50;;;;;;4953198;28;45284;-62
2022/09/11 07:52:21;;;;;;;0.40;0.20;;;24.00;47.50;;;;;;4951917;28;45214;-63
2022/09/11 07:54:46;;;;;;;1.48;0.30;;;24.00;47.50;;;;;;4973458;28;45677;-62
2022/09/11 07:57:12;;;;;;;0.20;0.20;;;24.00;47.50;;;;;;4972843;28;45037;-63
2022/09/11 07:59:38;;;;;;;0.32;0.22;;;24.10;47.50;;;;;;4970155;28;45709;-64
2022/09/11 08:02:03;;;;;;;0.35;0.30;;;24.00;47.50;;;;;;4952309;28;45040;-63
2022/09/11 08:04:29;;;;;;;0.38;0.38;;;24.10;47.50;;;;;;4971928;28;45417;-63
2022/09/11 08:06:54;;;;;;;0.50;0.28;;;24.10;47.50;;;;;;4972417;28;45958;-62
2022/09/11 08:09:20;;;;;;;0.43;0.20;;;24.10;47.50;;;;;;4971152;28;45297;-62
2022/09/11 08:11:47;;;;;;;0.50;0.30;;;24.10;47.40;;;;;;4966356;28;45720;-61
2022/09/11 08:14:13;;;;;;;0.47;0.28;;;24.10;47.50;;;;;;4976177;28;45341;-64
2022/09/11 08:16:39;;;;;;;0.20;0.20;;;24.10;47.50;;;;;;4967115;28;46180;-62
2022/09/11 08:19:05;;;;;;;0.30;0.30;;;24.10;47.40;;;;;;4942542;28;45444;-61
2022/09/11 08:21:31;;;;;;;0.30;0.28;;;24.10;47.50;;;;;;4063190;28;10000564;-64
2022/09/11 08:23:56;;;;;;;0.50;0.22;;;24.10;47.50;;;;;;4895230;28;45503;-61
2022/09/11 08:26:29;;;;;;;0.47;0.38;;;24.10;47.60;;;;;;4898504;28;45925;-62
2022/09/11 08:28:55;;;;;;;;;;;24.10;47.70;;;;;;4898273;28;44882;-63
2022/09/11 08:31:26;;;;;;;0.20;0.20;;;24.10;47.80;;;;;;4894676;28;45855;-65
2022/09/11 08:33:52;;;;;;;1.05;0.40;;;24.10;48.20;;;;;;4038593;28;10000419;-66
2022/09/11 08:36:18;;;;;;;0.30;0.30;;;24.10;47.50;;;;;;4899753;28;45269;-62
2022/09/11 08:38:43;;;;;;;0.30;0.30;;;24.10;47.50;;;;;;4915813;28;45253;-63
2022/09/11 08:41:12;;;;;;;0.40;0.32;;;24.10;47.60;;;;;;4915221;28;45615;-63
2022/09/11 08:43:49;;;;;;;0.52;0.40;;;24.10;47.60;;;;;;4070038;23;10000602;-63
2022/09/11 08:46:15;;;;;;;1.00;0.60;;;24.10;47.60;;;;;;4891870;28;45412;-63
2022/09/11 08:49:00;;;;;;;0.40;0.40;;;24.10;47.60;;;;;;4864787;29;44907;-62
2022/09/11 08:51:25;;;;;;;0.30;0.30;;;24.10;47.70;;;;;;4916117;28;45152;-63
2022/09/11 08:53:53;;;;;;;0.30;0.20;;;24.10;47.70;;;;;;4877772;29;45270;-63
2022/09/11 08:56:21;;;;;;;0.55;0.40;;;24.10;47.60;;;;;;4880640;29;45475;-64
2022/09/11 08:59:06;;;;;;;0.40;0.30;;;24.10;47.60;;;;;;4847930;29;45137;-64
2022/09/11 09:01:54;;;;;;;0.30;0.30;;;24.10;47.60;;;;;;4877095;29;46938;-62
2022/09/11 09:04:41;;;;;;;0.68;0.40;;;24.10;47.80;;;;;;4877944;29;45584;-63
2022/09/11 09:07:35;;;;;;;0.30;0.30;;;24.10;47.70;;;;;;4876600;29;45527;-62
2022/09/11 09:10:07;;;;;;;0.30;0.30;;;24.10;47.70;;;;;;4893056;28;45451;-62
2022/09/11 09:13:01;;;;;;;0.68;0.38;;;24.10;47.70;;;;;;4877763;29;46409;-61
2022/09/11 09:15:29;;;;;;;0.40;0.40;;;24.10;47.80;;;;;;4877276;29;45239;-65
2022/09/11 09:18:00;;;;;;;0.30;0.30;;;24.10;47.70;;;;;;4861878;29;45668;-62
2022/09/11 09:20:29;;;;;;;0.75;0.40;;;24.10;47.70;;;;;;4892412;28;45256;-63
2022/09/11 09:23:05;;;;;;;0.77;0.35;;;24.10;47.70;;;;;;4893190;28;46057;-63
2022/09/11 09:25:34;;;;;;;0.45;0.30;;;24.10;47.70;;;;;;4875159;29;44735;-64
2022/09/11 09:28:13;;;;;;;0.40;0.40;;;24.10;47.70;;;;;;4862621;29;44680;-61
2022/09/11 09:30:59;;;;;;;0.28;0.28;;;24.10;47.70;;;;;;4877390;29;45517;-63
2022/09/11 09:33:34;;;;;;;0.63;0.40;;;24.10;47.80;;;;;;4872728;29;45552;-63
2022/09/11 09:36:19;;;;;;;0.68;0.40;;;24.10;47.70;;;;;;4878477;29;45473;-64
2022/09/11 09:38:45;;;;;;;0.22;0.22;;;24.10;47.90;;;;;;4878571;29;45326;-62
2022/09/11 09:41:14;;;;;;;0.30;0.30;;;24.10;47.70;;;;;;4878795;29;45419;-62
2022/09/11 09:44:03;;;;;;;0.45;0.32;;;24.10;47.80;;;;;;4878127;29;46039;-63
2022/09/11 09:46:36;;;;;;;0.40;0.40;;;24.10;47.80;;;;;;4875838;29;45295;-63
2022/09/11 09:49:01;;;;;;;0.73;0.30;;;24.10;47.80;;;;;;4877092;29;45299;-63
2022/09/11 09:51:27;;;;;;;0.63;0.30;;;24.10;47.70;;;;;;4877692;29;45059;-62
2022/09/11 09:53:54;;;;;;;2.38;0.82;;;24.20;47.70;;;;;;4877927;29;45296;-63
2022/09/11 09:56:20;;;;;;;0.55;0.40;;;24.20;47.70;;;;;;4876526;29;45330;-65
2022/09/11 09:59:17;;;;;;;1.30;0.45;;;24.20;47.70;;;;;;4862212;29;45628;-64
2022/09/11 10:01:50;;;;;;;0.52;0.43;;;24.20;47.70;;;;;;4852879;29;45678;-63
2022/09/11 10:04:25;;;;;;;0.40;0.40;;;24.20;47.70;;;;;;4876122;29;45174;-62
2022/09/11 10:07:13;;;;;;;0.60;0.40;;;24.10;47.60;;;;;;4878287;29;45236;-63
2022/09/11 10:09:45;;;;;;;0.40;0.40;;;24.20;47.70;;;;;;4877066;29;45301;-63
2022/09/11 10:12:21;;;;;;;0.30;0.30;;;24.20;47.60;;;;;;4861796;29;44821;-63
2022/09/11 10:14:55;;;;;;;0.90;0.40;;;24.20;47.60;;;;;;4875706;29;45622;-64
2022/09/11 10:17:31;;;;;;;0.43;0.35;;;24.20;47.60;;;;;;4850090;29;45182;-63
2022/09/11 10:20:30;;;;;;;0.55;0.40;;;24.20;47.60;;;;;;4880425;29;45570;-63
2022/09/11 10:22:55;;;;;;;0.30;0.30;;;24.20;47.70;;;;;;4873039;29;45660;-62
2022/09/11 10:25:28;;;;;;;0.30;0.30;;;24.20;47.50;;;;;;4878311;29;45949;-63
2022/09/11 10:27:58;;;;;;;;;;;24.20;47.50;;;;;;4876673;29;45375;-65
2022/09/11 10:30:32;;;;;;;0.28;0.25;;;24.20;47.60;;;;;;4906441;28;45247;-63
2022/09/11 10:32:59;;;;;;;0.40;0.40;;;24.30;47.50;;;;;;4875704;29;45385;-63
2022/09/11 10:35:26;;;;;;;0.30;0.30;;;24.30;47.50;;;;;;4860605;29;46845;-64
2022/09/11 10:38:00;;;;;;;1.10;0.50;;;24.30;47.50;;;;;;4877097;29;45260;-63
2022/09/11 10:40:26;;;;;;;0.70;0.40;;;24.30;47.50;;;;;;4876833;29;45275;-63
2022/09/11 10:42:53;;;;;;;0.75;0.30;;;24.30;47.50;;;;;;4877528;29;44979;-63
2022/09/11 10:45:20;;;;;;;0.57;0.40;;;24.20;47.50;;;;;;4876297;29;47635;-63
2022/09/11 10:47:45;;;;;;;0.40;0.40;;;24.30;47.50;;;;;;4858952;29;45577;-61
2022/09/11 10:50:17;;;;;;;0.40;0.40;;;24.30;47.50;;;;;;4877360;29;45728;-65
2022/09/11 10:53:22;;;;;;;0.55;0.40;;;24.30;47.50;;;;;;4877449;29;45601;-63
2022/09/11 10:55:51;;;;;;;0.32;0.30;;;24.40;47.50;;;;;;4877823;29;46038;-63
2022/09/11 10:58:18;;;;;;;0.60;0.32;;;24.30;47.40;;;;;;4877291;29;45201;-63
2022/09/11 11:00:43;;;;;;;0.47;0.47;;;24.30;47.40;;;;;;4875536;29;45133;-63
2022/09/11 11:03:15;;;;;;;0.40;0.40;;;24.40;47.30;;;;;;4878251;29;45454;-63
2022/09/11 11:06:05;;;;;;;0.40;0.40;;;24.40;47.40;;;;;;4875136;29;45075;-63
2022/09/11 11:08:39;;;;;;;0.52;0.50;;;24.40;47.40;;;;;;4876857;29;45249;-65
2022/09/11 11:11:32;;;;;;;0.43;0.35;;;24.40;47.30;;;;;;4876880;29;48397;-64
2022/09/11 11:14:13;;;;;;;0.33;0.33;;;24.40;47.30;;;;;;4878352;29;45290;-64
2022/09/11 11:16:48;;;;;;;0.45;0.40;;;24.40;47.30;;;;;;4878492;29;45442;-63
2022/09/11 11:19:28;;;;;;;0.35;0.30;;;24.40;47.30;;;;;;4876754;29;45152;-63
2022/09/11 11:22:13;;;;;;;0.60;0.40;;;24.40;47.20;;;;;;4876305;29;45680;-65
2022/09/11 11:25:06;;;;;;;0.40;0.40;;;24.40;47.20;;;;;;4879147;29;45276;-62
2022/09/11 11:27:42;;;;;;;0.43;0.43;;;24.40;47.30;;;;;;4904931;28;47408;-63
2022/09/11 11:30:13;;;;;;;0.40;0.32;;;24.40;47.20;;;;;;4877021;29;45708;-63
2022/09/11 11:32:47;;;;;;;0.40;0.40;;;24.40;47.10;;;;;;4892257;28;45368;-63
2022/09/11 11:35:27;;;;;;;0.50;0.50;;;24.50;47.10;;;;;;4878173;29;44659;-63
2022/09/11 11:38:02;;;;;;;0.40;0.40;;;24.50;47.20;;;;;;4861627;29;47363;-62
2022/09/11 11:40:35;;;;;;;0.40;0.40;;;24.50;47.10;;;;;;4876872;29;44764;-64
2022/09/11 11:43:06;;;;;;;0.45;0.45;;;24.50;47.10;;;;;;4846237;29;45195;-62
2022/09/11 11:45:46;;;;;;;0.40;0.40;;;24.50;47.10;;;;;;4880735;29;46293;-62
2022/09/11 11:48:37;;;;;;;0.47;0.47;;;24.50;47.10;;;;;;4864290;29;47181;-62
2022/09/11 11:51:08;;;;;;;0.40;0.40;;;24.50;47.10;;;;;;4879031;29;45192;-63
2022/09/11 11:53:39;;;;;;;0.43;0.40;;;24.50;47.70;;;;;;4879989;29;45257;-63
2022/09/11 11:56:35;;;;;;;0.52;0.52;;;24.60;47.10;;;;;;4880791;29;45409;-63
2022/09/11 11:59:30;;;;;;;0.40;0.40;;;24.60;47.10;;;;;;4892084;28;45945;-63
2022/09/11 12:02:03;;;;;;;0.63;0.60;;;24.60;47.10;;;;;;4891849;28;45926;-62
2022/09/11 12:04:31;;;;;;;;;;;24.60;47.10;;;;;;4895426;28;45269;-63
2022/09/11 12:06:57;;;;;;;0.60;0.45;;;24.50;47.20;;;;;;4881677;29;45647;-64
2022/09/11 12:09:23;;;;;;;0.50;0.50;;;24.50;47.10;;;;;;4885455;29;45988;-63
2022/09/11 12:11:49;;;;;;;0.50;0.50;;;24.50;47.10;;;;;;4879691;29;44981;-63
2022/09/11 12:14:32;;;;;;;0.45;0.45;;;24.50;47.10;;;;;;4865627;29;45341;-63
2022/09/11 12:17:14;;;;;;;0.40;0.40;;;24.50;47.20;;;;;;4897627;28;45702;-64
2022/09/11 12:20:06;;;;;;;0.40;0.40;;;24.60;47.80;;;;;;4881159;29;45203;-62
2022/09/11 12:22:33;;;;;;;0.77;0.40;;;24.50;47.80;;;;;;4879567;29;45591;-62
2022/09/11 12:24:59;;;;;;;0.38;0.38;;;24.60;47.30;;;;;;4881968;29;45122;-65
2022/09/11 12:27:32;;;;;;;0.50;0.50;;;24.60;47.20;;;;;;4881900;29;44853;-62
2022/09/11 12:30:15;;;;;;;0.50;0.50;;;24.60;47.20;;;;;;4880196;29;46182;-64
2022/09/11 12:32:54;;;;;;;0.50;0.50;;;24.60;47.20;;;;;;4878205;29;45492;-64
2022/09/11 12:35:38;;;;;;;1.15;0.75;;;24.60;47.20;;;;;;4878536;29;46124;-62
2022/09/11 12:38:07;;;;;;;0.40;0.40;;;24.60;47.30;;;;;;4880486;29;45304;-64
2022/09/11 12:40:37;;;;;;;0.63;0.52;;;24.60;47.20;;;;;;4879850;29;45520;-63
2022/09/11 12:43:19;;;;;;;0.57;0.57;;;24.60;47.20;;;;;;4876179;29;45622;-63
2022/09/11 12:45:47;;;;;;;0.65;0.50;;;24.60;47.20;;;;;;4880079;29;45387;-62
2022/09/11 12:48:16;;;;;;;0.60;0.60;;;24.60;47.20;;;;;;4880405;29;45271;-63
2022/09/11 12:50:50;;;;;;;2.45;0.60;;;24.60;47.10;;;;;;4877157;29;45800;-63
2022/09/11 12:53:19;;;;;;;0.70;0.70;;;24.60;47.20;;;;;;4878494;29;44710;-63
2022/09/11 12:55:57;;;;;;;0.50;0.50;;;24.70;47.20;;;;;;4891959;28;44762;-63
2022/09/11 12:58:42;;;;;;;0.52;0.52;;;24.70;47.20;;;;;;4879490;29;45400;-63
2022/09/11 13:01:13;;;;;;;0.55;0.55;;;24.60;47.20;;;;;;4894680;28;45998;-63
2022/09/11 13:03:55;;;;;;;0.77;0.50;;;24.60;47.20;;;;;;4879674;29;45273;-66
2022/09/11 13:06:21;;;;;;;0.63;0.60;;;24.70;47.10;;;;;;4878770;29;45157;-63
2022/09/11 13:08:54;;;;;;;0.50;0.50;;;24.70;47.10;;;;;;4880608;29;45182;-66
2022/09/11 13:11:40;;;;;;;0.43;0.43;;;24.70;47.10;;;;;;4880620;29;45991;-64
2022/09/11 13:14:27;;;;;;;0.70;0.65;;;24.70;47.10;;;;;;4863751;29;45441;-62
2022/09/11 13:16:57;;;;;;;0.68;0.40;;;24.70;47.10;;;;;;4881390;29;45315;-63
2022/09/11 13:19:30;;;;;;;0.50;0.50;;;24.70;47.10;;;;;;4894595;28;45818;-62
2022/09/11 13:21:55;;;;;;;0.55;0.55;;;24.70;47.10;;;;;;4878343;29;45297;-62
2022/09/11 13:24:25;;;;;;;0.63;0.52;;;24.70;47.10;;;;;;4861606;29;45837;-63
2022/09/11 13:26:55;;;;;;;0.50;0.50;;;24.70;47.20;;;;;;4880268;29;45229;-61
2022/09/11 13:29:25;;;;;;;1.00;0.57;;;24.70;47.20;;;;;;4864594;29;45231;-62
2022/09/11 13:31:51;;;;;;;0.60;0.60;;;24.70;47.10;;;;;;4847472;29;46260;-64
2022/09/11 13:34:17;;;;;;;0.70;0.70;;;24.70;47.20;;;;;;4876923;29;45458;-65
2022/09/11 13:36:43;;;;;;;0.40;0.40;;;24.70;47.20;;;;;;4860496;29;46611;-63
2022/09/11 13:39:08;;;;;;;1.10;0.50;;;24.70;47.20;;;;;;4879818;29;45573;-63
2022/09/11 13:41:36;;;;;;;1.15;0.60;;;24.70;47.20;;;;;;4877555;29;46074;-64
2022/09/11 13:44:02;;;;;;;0.60;0.60;;;24.70;47.30;;;;;;4860948;29;45654;-62
2022/09/11 13:46:31;;;;;;;0.60;0.60;;;24.70;47.30;;;;;;4876392;29;45484;-65
2022/09/11 13:49:05;;;;;;;0.70;0.60;;;24.70;47.20;;;;;;4876855;29;45542;-62
2022/09/11 13:51:30;;;;;;;0.70;0.70;;;24.70;47.30;;;;;;4877842;29;45793;-62
2022/09/11 13:53:59;;;;;;;0.70;0.70;;;24.70;47.20;;;;;;4877335;29;44700;-62
2022/09/11 13:57:03;;;;;;;1.10;0.85;;;24.70;47.30;;;;;;4879109;29;45319;-63
2022/09/11 13:59:46;;;;;;;0.60;0.60;;;24.70;47.30;;;;;;4879596;29;45448;-64
2022/09/11 14:02:31;;;;;;;;;;;24.70;47.30;;;;;;4878371;29;46111;-63
2022/09/11 14:05:21;;;;;;;0.68;0.68;;;24.70;47.40;;;;;;4877206;29;44721;-62
2022/09/11 14:08:00;;;;;;;0.60;0.40;;;24.70;47.50;;;;;;4877009;29;45744;-63
2022/09/11 14:10:41;;;;;;;0.50;0.50;;;24.70;47.30;;;;;;4875489;29;45193;-64
2022/09/11 14:13:41;;;;;;;0.93;0.50;;;24.70;47.50;;;;;;4906631;28;46205;-61
2022/09/11 14:16:07;;;;;;;0.77;0.73;;;24.60;47.50;;;;;;4872803;29;44715;-63
2022/09/11 14:18:34;;;;;;;0.70;0.70;;;24.60;47.50;;;;;;4878528;29;45300;-63
2022/09/11 14:21:02;;;;;;;0.50;0.50;;;24.60;47.50;;;;;;4881169;29;45807;-62
2022/09/11 14:23:28;;;;;;;0.90;0.55;;;24.60;47.50;;;;;;4894747;28;45066;-63
2022/09/11 14:26:14;;;;;;;1.02;0.80;;;24.60;47.50;;;;;;4877844;29;45357;-64
2022/09/11 14:28:49;;;;;;;0.60;0.60;;;24.70;47.60;;;;;;4878606;29;44730;-64
2022/09/11 14:31:43;;;;;;;0.60;0.60;;;24.60;47.50;;;;;;4877120;28;45418;-62
2022/09/11 14:34:24;;;;;;;0.70;0.70;;;24.60;47.50;;;;;;4877137;29;45929;-63
2022/09/11 14:36:52;;;;;;;1.48;0.80;;;24.60;47.40;;;;;;4876317;29;45379;-65
2022/09/11 14:39:38;;;;;;;0.63;0.63;;;24.70;47.40;;;;;;4880916;29;45322;-66
2022/09/11 14:42:08;;;;;;;0.70;0.70;;;24.70;47.40;;;;;;4907657;28;45393;-65
2022/09/11 14:44:34;;;;;;;0.60;0.60;;;24.70;47.40;;;;;;4879259;29;47151;-63
2022/09/11 14:47:00;;;;;;;0.70;0.70;;;24.70;47.30;;;;;;4874220;29;45529;-65
2022/09/11 14:49:26;;;;;;;0.68;0.65;;;24.70;47.30;;;;;;4873436;29;45226;-63
2022/09/11 14:52:01;;;;;;;1.15;0.60;;;24.70;47.20;;;;;;4911785;28;44852;-64
2022/09/11 14:54:29;;;;;;;1.38;0.77;;;24.70;47.20;;;;;;4879448;29;45792;-63
2022/09/11 14:56:57;;;;;;;0.68;0.68;;;24.80;47.30;;;;;;4894553;28;45322;-64
2022/09/11 14:59:23;;;;;;;0.68;0.68;;;24.80;47.30;;;;;;4879400;28;45201;-63
2022/09/11 15:01:50;;;;;;;3.13;0.55;;;24.80;47.30;;;;;;4892745;28;45517;-64
2022/09/11 15:04:18;;;;;;;0.68;0.68;;;24.80;47.20;;;;;;4877894;29;46252;-64
2022/09/11 15:06:44;;;;;;;0.60;0.60;;;24.80;47.30;;;;;;4876183;29;45590;-63
2022/09/11 15:09:10;;;;;;;0.75;0.75;;;24.80;47.30;;;;;;4875016;29;45194;-63
2022/09/11 15:11:35;;;;;;;1.13;0.70;;;24.80;47.30;;;;;;4875339;29;46101;-63
2022/09/11 15:14:01;;;;;;;0.80;0.80;;;24.80;47.30;;;;;;4892606;28;45305;-63
2022/09/11 15:16:27;;;;;;;0.60;0.60;;;24.80;47.30;;;;;;4878479;29;45276;-65
2022/09/11 15:18:53;;;;;;;0.60;0.60;;;24.80;47.30;;;;;;4870402;29;44663;-63
2022/09/11 15:21:18;;;;;;;0.60;0.60;;;24.80;47.30;;;;;;4872213;29;45012;-64
2022/09/11 15:23:46;;;;;;;1.27;0.70;;;24.80;47.30;;;;;;4878243;29;46036;-64
2022/09/11 15:26:11;;;;;;;0.77;0.77;;;24.80;47.30;;;;;;4876175;29;45339;-63
2022/09/11 15:28:37;;;;;;;0.98;0.88;;;24.80;47.30;;;;;;4877461;29;45297;-63
2022/09/11 15:31:03;;;;;;;0.60;0.60;;;24.80;47.30;;;;;;4871999;29;44797;-64
2022/09/11 15:33:29;;;;;;;0.75;0.70;;;24.80;47.30;;;;;;4903448;28;46043;-64
2022/09/11 15:35:59;;;;;;;0.50;0.50;;;24.80;47.30;;;;;;4873455;29;45393;-63
2022/09/11 15:38:26;;;;;;;0.73;0.70;;;24.80;47.30;;;;;;4869396;29;45539;-66
2022/09/11 15:40:55;;;;;;;0.60;0.60;;;24.80;47.30;;;;;;4873462;29;44982;-63
2022/09/11 15:43:25;;;;;;;0.88;0.73;;;24.80;47.30;;;;;;4872099;29;46166;-64
2022/09/11 15:45:50;;;;;;;0.80;0.80;;;24.80;47.30;;;;;;4871528;29;44766;-63
2022/09/11 15:48:17;;;;;;;0.80;0.80;;;24.80;47.20;;;;;;4875842;29;45840;-64
2022/09/11 15:50:42;;;;;;;0.68;0.68;;;24.80;47.20;;;;;;4873458;29;45245;-65
2022/09/11 15:53:08;;;;;;;0.85;0.85;;;24.80;47.20;;;;;;4876229;29;45272;-62
2022/09/11 15:55:35;;;;;;;0.70;0.50;;;24.80;47.20;;;;;;4876449;29;45241;-64
2022/09/11 15:58:00;;;;;;;0.52;0.52;;;24.80;47.20;;;;;;4875611;29;44642;-64
2022/09/11 16:00:26;;;;;;;0.80;0.50;;;24.80;47.20;;;;;;4873714;29;45552;-65
2022/09/11 16:02:52;;;;;;;0.70;0.70;;;24.80;47.20;;;;;;4872646;29;46144;-63
2022/09/11 16:05:18;;;;;;;0.80;0.80;;;24.80;47.20;;;;;;4870837;29;45712;-66